Arcadia, Michigan
Current Conditions -  °F | °C
As of 7:34 PM on Monday 24 Nov 2014 (Local Time) from KFKS Reporting Station
Light Snow Light Snow  
Wind Chill: -4°   Ceiling: 600
Heat Index:   Visibility: 1.2mi
Dew Point:   Wind: 10mph
Humidity: 99%   Direction: 340°NNW
Pressure: 29.34"   Gusts: NA
Location:  44.49°N, 86.23°W
Report Text: KFKS 250034Z AUTO 34009KT 1 1/4SM -SN OVC006 00/00 A2934 RMK AO2 T00020000
Loading
Personal Weather Stations






























Interactive Weather Map New forecast layout! Learn more

10-Day Weather Forecast

Advertisements
Track Severe Weather on mobile